Terminal Aerodrome Forecast
Issued by NWS Wilmington, OH

Current Version | Previous Version | Graphics & Text | Print | Product List | Glossary Off
Versions: 1 2 3 4 5 6 7 8 9 10 11 12 13 14 15 16 17 18 19 20 21 22 23 24 25 26 27 28 29 30 31 32 33

000
FTUS41 KILN 010500
TAFDAY
TAF
KDAY 010540Z 0106/0206 20006KT 5SM -SN BR OVC035
      TEMPO 0107/0109 2SM -RASN BR OVC020
     FM011200 12010KT 4SM BR VCSH SCT012 OVC100
     FM012000 15010KT 2SM -RA BKN008 OVC020
      TEMPO 0201/0204 23010KT 1SM -RA BKN012
     FM020400 29014G24KT 5SM -SNRA OVC018=

USA.gov is the U.S. government's official web portal to all federal, state and local government web resources and services.